createdAt,value
2017-11-09T04:31:14.032Z,323.40
2017-11-09T04:33:41.618Z,332.12
2017-11-09T04:36:09.223Z,371.45
2017-11-09T04:38:37.607Z,373.17
2017-11-09T04:41:05.206Z,383.98
2017-11-09T04:43:32.841Z,333.60
2017-11-09T04:46:00.427Z,317.33
2017-11-09T04:48:28.035Z,321.60
2017-11-09T04:50:56.411Z,281.75
2017-11-09T04:53:24.787Z,301.37
2017-11-09T04:55:53.138Z,303.98
2017-11-09T04:58:20.827Z,347.20
2017-11-09T05:00:49.178Z,331.63
2017-11-09T05:03:16.771Z,329.60
2017-11-09T05:05:44.407Z,397.08
2017-11-09T05:08:12.802Z,322.48
2017-11-09T05:10:41.187Z,392.55
2017-11-09T05:13:08.798Z,386.23
2017-11-09T05:15:36.378Z,357.67
2017-11-09T05:18:04.057Z,399.70
2017-11-09T05:20:32.430Z,459.87
2017-11-09T05:23:00.807Z,382.92
2017-11-09T05:25:29.212Z,421.40
2017-11-09T05:27:56.846Z,417.80
2017-11-09T05:30:25.196Z,433.60
2017-11-09T05:32:53.618Z,370.83
2017-11-09T05:35:21.198Z,460.55
2017-11-09T05:37:48.820Z,357.00
2017-11-09T05:40:17.241Z,373.27
2017-11-09T05:42:44.827Z,370.92
2017-11-09T05:45:12.520Z,353.62
2017-11-09T05:47:40.896Z,352.70
2017-11-09T05:50:09.262Z,311.52
2017-11-09T05:52:37.614Z,267.67
2017-11-09T05:55:05.308Z,264.12
2017-11-09T05:57:33.686Z,260.25
2017-11-09T06:00:02.039Z,279.40
2017-11-09T06:02:29.651Z,306.38
2017-11-09T06:04:57.234Z,297.73
2017-11-09T06:07:24.843Z,282.70
2017-11-09T06:09:53.219Z,303.70
2017-11-09T06:12:21.572Z,353.12
2017-11-09T06:14:49.207Z,424.92
2017-11-09T06:17:16.794Z,335.30
2017-11-09T06:19:44.481Z,411.77
2017-11-09T06:22:12.109Z,493.45
2017-11-09T06:24:40.515Z,401.10
2017-11-09T06:27:08.891Z,458.33
2017-11-09T06:29:37.267Z,469.52
2017-11-09T06:32:05.619Z,525.40
2017-11-09T06:34:33.307Z,527.50
2017-11-09T06:37:01.691Z,501.65
2017-11-09T06:39:29.331Z,529.92
2017-11-09T06:41:57.723Z,509.77
2017-11-09T06:44:25.379Z,474.73
2017-11-09T06:46:53.751Z,508.87
2017-11-09T06:49:22.111Z,566.72
2017-11-09T06:51:49.794Z,499.35
2017-11-09T06:54:18.373Z,573.95
2017-11-09T06:56:46.785Z,483.35
2017-11-09T06:59:14.372Z,487.05
2017-11-09T07:01:41.979Z,440.70
2017-11-09T07:04:09.571Z,490.48
2017-11-09T07:06:37.183Z,487.70
2017-11-09T07:09:05.537Z,573.37
2017-11-09T07:11:33.174Z,529.25
2017-11-09T07:14:00.760Z,512.92
2017-11-09T07:16:28.347Z,576.80
2017-11-09T07:18:56.827Z,491.50
2017-11-09T07:21:24.496Z,496.40
2017-11-09T07:23:52.100Z,481.50
2017-11-09T07:26:19.747Z,707.95
2017-11-09T07:28:47.335Z,541.53
2017-11-09T07:31:14.925Z,622.63
2017-11-09T07:33:43.318Z,555.22
2017-11-09T07:36:10.907Z,515.95
2017-11-09T07:38:38.499Z,522.72
2017-11-09T07:41:06.183Z,488.83
2017-11-09T07:43:34.535Z,648.90
2017-11-09T07:46:02.216Z,674.30
2017-11-09T07:48:30.606Z,548.58
2017-11-09T07:50:58.206Z,552.50
2017-11-09T07:53:25.818Z,504.12
2017-11-09T07:55:54.299Z,541.88
2017-11-09T07:58:22.650Z,476.85
2017-11-09T08:00:50.240Z,533.83
2017-11-09T08:03:17.852Z,475.25
2017-11-09T08:05:45.551Z,515.17
2017-11-09T08:08:13.895Z,429.45
2017-11-09T08:10:41.588Z,515.03
2017-11-09T08:13:09.185Z,489.08
2017-11-09T08:15:36.772Z,457.58
2017-11-09T08:18:04.412Z,418.17
2017-11-09T08:20:31.998Z,385.20
2017-11-09T08:22:59.686Z,420.90
2017-11-09T08:25:29.775Z,505.40
2017-11-09T08:28:14.301Z,499.62
2017-11-09T08:30:45.360Z,514.15
2017-11-09T08:33:13.673Z,545.80
2017-11-09T08:35:42.028Z,545.42
2017-11-09T08:38:09.625Z,567.63
2017-11-09T08:40:37.268Z,640.53
2017-11-09T08:43:05.648Z,598.40
2017-11-09T08:45:34.035Z,584.40
2017-11-09T08:48:01.693Z,625.87
2017-11-09T08:50:29.347Z,643.60
2017-11-09T08:52:57.735Z,627.08
2017-11-09T08:55:25.327Z,618.53
2017-11-09T08:57:52.928Z,516.70
2017-11-09T09:00:20.576Z,560.08
2017-11-09T09:02:48.258Z,504.90
2017-11-09T09:05:16.607Z,478.52
2017-11-09T09:07:44.305Z,468.52
2017-11-09T09:10:12.660Z,419.33
2017-11-09T09:12:41.019Z,369.95
2017-11-09T09:15:08.656Z,430.63
2017-11-09T09:17:36.247Z,449.17
2017-11-09T09:20:03.843Z,416.73
2017-11-09T09:25:26.533Z,359.00
2017-11-09T09:27:56.873Z,309.83
2017-11-09T09:30:24.483Z,306.85
2017-11-09T09:33:12.063Z,283.92
2017-11-09T09:35:46.225Z,277.30
2017-11-09T09:38:31.154Z,296.92
2017-11-09T09:40:58.755Z,190.25
2017-11-09T09:43:26.383Z,192.35
2017-11-09T09:45:53.972Z,167.80
2017-11-09T09:48:21.559Z,163.48
2017-11-09T09:50:49.195Z,172.48
2017-11-09T09:53:16.839Z,129.85
2017-11-09T09:55:45.214Z,145.20
2017-11-09T09:58:13.578Z,138.07
2017-11-09T10:00:41.942Z,113.30
2017-11-09T10:03:09.579Z,130.80
2017-11-09T10:05:37.168Z,116.53
2017-11-09T10:08:04.750Z,106.87
2017-11-09T10:10:33.139Z,96.95
2017-11-09T10:13:00.783Z,100.45
2017-11-09T10:15:29.167Z,80.35
2017-11-09T10:17:57.572Z,78.87
2017-11-09T10:20:25.191Z,92.60
2017-11-09T10:22:53.543Z,94.70
2017-11-09T10:25:21.239Z,96.03
2017-11-09T10:27:49.610Z,95.75
2017-11-09T10:30:17.992Z,83.20
2017-11-09T10:32:46.481Z,87.12
2017-11-09T10:35:14.080Z,92.85
2017-11-09T10:37:41.672Z,100.93
2017-11-09T10:40:09.295Z,97.37
2017-11-09T10:42:36.893Z,91.28
2017-11-09T10:45:04.475Z,80.72
2017-11-09T10:47:32.098Z,79.15
2017-11-09T10:49:59.678Z,71.37
2017-11-09T10:52:28.059Z,71.45
2017-11-09T10:54:56.427Z,72.03
2017-11-09T10:57:24.816Z,76.32
2017-11-09T10:59:53.345Z,75.37
2017-11-09T11:02:20.927Z,70.05
2017-11-09T11:04:48.502Z,74.75
2017-11-09T11:07:16.167Z,65.37
2017-11-09T11:09:44.519Z,69.10
2017-11-09T11:12:12.107Z,60.35
2017-11-09T11:14:40.582Z,68.37
2017-11-09T11:17:08.964Z,71.85
2017-11-09T11:19:37.314Z,65.03
2017-11-09T11:22:06.942Z,78.40
2017-11-09T11:24:35.291Z,67.68
2017-11-09T11:27:02.887Z,64.10
2017-11-09T11:29:31.291Z,50.50
2017-11-09T11:31:58.876Z,52.97
2017-11-09T11:34:26.454Z,57.85
2017-11-09T11:36:54.089Z,58.50
2017-11-09T11:39:21.672Z,51.70
2017-11-09T11:41:49.262Z,61.22
2017-11-09T11:44:16.906Z,61.13
2017-11-09T11:46:44.510Z,67.32
2017-11-09T11:49:12.100Z,72.70
2017-11-09T11:51:39.723Z,54.80
2017-11-09T11:54:07.307Z,50.25
2017-11-09T11:56:34.882Z,57.40
2017-11-09T11:59:02.487Z,63.33
2017-11-09T12:01:30.075Z,60.33
2017-11-09T12:03:57.675Z,53.03
2017-11-09T12:06:25.259Z,52.45
2017-11-09T12:08:52.880Z,56.15
2017-11-09T12:11:20.459Z,59.10
2017-11-09T12:13:48.811Z,73.20
2017-11-09T12:16:16.438Z,74.78
2017-11-09T12:18:44.018Z,62.78
2017-11-09T12:21:11.598Z,58.40
2017-11-09T12:23:39.236Z,56.45
2017-11-09T12:26:06.827Z,57.80
2017-11-09T12:28:35.177Z,70.60
2017-11-09T12:31:02.818Z,47.08
2017-11-09T12:33:30.407Z,53.15
2017-11-09T12:35:58.010Z,49.50
2017-11-09T12:38:25.640Z,52.17
2017-11-09T12:40:53.227Z,48.10
2017-11-09T12:43:20.815Z,43.50
2017-11-09T12:45:48.446Z,45.28
2017-11-09T12:48:16.024Z,48.38
2017-11-09T12:50:43.607Z,41.58
2017-11-09T12:53:11.983Z,43.17
2017-11-09T12:55:40.338Z,40.22
2017-11-09T12:58:07.918Z,42.38
2017-11-09T13:00:35.538Z,45.72
2017-11-09T13:03:03.118Z,43.08
2017-11-09T13:05:30.748Z,43.40
2017-11-09T13:07:58.352Z,44.80
2017-11-09T13:10:25.939Z,41.08
2017-11-09T13:12:53.547Z,40.95
2017-11-09T13:15:21.136Z,52.20
2017-11-09T13:17:48.740Z,42.05
2017-11-09T13:20:16.406Z,40.65
2017-11-09T13:22:43.999Z,39.97
2017-11-09T13:25:11.619Z,46.00
2017-11-09T13:27:39.970Z,45.03
2017-11-09T13:30:07.559Z,46.72
2017-11-09T13:32:35.186Z,45.65
2017-11-09T13:35:02.763Z,51.28
2017-11-09T13:37:31.116Z,45.72
2017-11-09T13:39:58.719Z,49.97
2017-11-09T13:42:26.303Z,41.37
2017-11-09T13:44:53.904Z,46.03
2017-11-09T13:47:21.487Z,43.42
2017-11-09T13:49:49.891Z,48.00
2017-11-09T13:52:17.480Z,48.42
2017-11-09T13:54:45.058Z,67.28
2017-11-09T13:57:12.667Z,82.75
2017-11-09T13:59:40.251Z,69.87
2017-11-09T14:02:07.840Z,77.40
2017-11-09T14:04:36.233Z,78.50
2017-11-09T14:07:04.584Z,76.40
2017-11-09T14:09:32.195Z,67.32
2017-11-09T14:11:59.779Z,77.53
2017-11-09T14:14:27.360Z,61.88
2017-11-09T14:16:54.967Z,52.35
2017-11-09T14:19:22.627Z,70.80
2017-11-09T14:21:50.212Z,64.03
2017-11-09T14:24:17.800Z,62.83
2017-11-09T14:26:45.408Z,58.20
2017-11-09T14:29:13.020Z,52.90
2017-11-09T14:31:40.603Z,56.72
2017-11-09T14:34:08.947Z,51.90
2017-11-09T14:36:36.579Z,58.75
2017-11-09T14:39:04.167Z,55.60
2017-11-09T14:41:31.746Z,65.85
2017-11-09T14:44:00.120Z,70.65
2017-11-09T14:46:28.464Z,71.22
2017-11-09T14:48:56.839Z,71.22
2017-11-09T14:51:24.423Z,64.87
2017-11-09T14:53:52.778Z,60.40
2017-11-09T14:56:20.402Z,65.05
2017-11-09T14:58:47.983Z,72.93
2017-11-09T15:01:15.571Z,64.30
2017-11-09T15:03:43.175Z,72.07
2017-11-09T15:06:10.805Z,72.93
2017-11-09T15:08:42.987Z,71.45
2017-11-09T15:11:10.596Z,65.25
2017-11-09T15:13:38.183Z,67.82
2017-11-09T15:16:05.772Z,72.40
2017-11-09T15:18:33.402Z,68.00
2017-11-09T15:21:01.118Z,77.85
2017-11-09T15:23:28.698Z,73.97
2017-11-09T15:25:56.343Z,82.55
2017-11-09T15:28:23.959Z,81.25
2017-11-09T15:30:51.550Z,78.30
2017-11-09T15:33:19.176Z,83.12
2017-11-09T15:35:53.556Z,84.07
2017-11-09T15:38:21.247Z,73.12
2017-11-09T15:40:50.007Z,75.75
2017-11-09T15:43:17.699Z,79.70
2017-11-09T15:45:46.074Z,72.05
2017-11-09T15:48:14.555Z,86.20
2017-11-09T15:50:43.196Z,82.45
2017-11-09T15:53:10.783Z,91.30
2017-11-09T15:55:38.507Z,92.05
2017-11-09T15:58:06.102Z,91.30
2017-11-09T16:00:33.789Z,84.62
2017-11-09T16:03:01.389Z,88.10
2017-11-09T16:05:28.975Z,89.82
2017-11-09T16:07:56.658Z,99.45
2017-11-09T16:10:25.034Z,95.62
2017-11-09T16:12:53.414Z,93.60
2017-11-09T16:15:21.788Z,101.80
2017-11-09T16:17:50.138Z,98.32
2017-11-09T16:20:17.823Z,90.38
2017-11-09T16:22:46.176Z,95.43
2017-11-09T16:25:13.862Z,94.55
2017-11-09T16:27:42.234Z,105.32
2017-11-09T16:30:10.588Z,100.45
2017-11-09T16:32:38.289Z,99.93
2017-11-09T16:35:05.932Z,99.05
2017-11-09T16:37:34.288Z,104.87
2017-11-09T16:40:01.873Z,87.65
2017-11-09T16:42:36.079Z,102.62
2017-11-09T16:45:03.751Z,105.45
2017-11-09T16:47:32.157Z,122.55
2017-11-09T16:49:59.788Z,101.10
2017-11-09T16:52:28.217Z,112.03
2017-11-09T16:54:55.931Z,112.10
2017-11-09T16:57:24.410Z,108.90
2017-11-09T16:59:52.790Z,105.43
2017-11-09T17:02:21.217Z,121.43
2017-11-09T17:04:48.840Z,114.60
2017-11-09T17:07:32.025Z,149.50
2017-11-09T17:09:59.651Z,149.18
2017-11-09T17:12:27.239Z,161.20
2017-11-09T17:15:00.919Z,164.25
2017-11-09T17:17:28.506Z,182.18
2017-11-09T17:19:56.188Z,169.20
2017-11-09T17:22:24.535Z,159.93
2017-11-09T17:24:53.630Z,203.55
2017-11-09T17:27:21.230Z,185.60
2017-11-09T17:29:48.979Z,172.23
2017-11-09T17:32:17.844Z,192.55
2017-11-09T17:34:45.583Z,171.95
2017-11-09T17:37:13.380Z,161.50
2017-11-09T17:39:41.964Z,185.90
2017-11-09T17:42:14.471Z,192.52
2017-11-09T17:44:42.151Z,190.00
2017-11-09T17:47:09.738Z,190.32
2017-11-09T17:49:37.376Z,196.93
2017-11-09T17:52:05.277Z,165.62
2017-11-09T17:54:33.657Z,158.30
2017-11-09T17:57:01.286Z,145.52
2017-11-09T17:59:29.865Z,160.20
2017-11-09T18:01:57.586Z,170.40
2017-11-09T18:04:26.000Z,154.68
2017-11-09T18:06:53.588Z,148.52
2017-11-09T18:09:21.185Z,173.87
2017-11-09T18:11:48.822Z,164.95
2017-11-09T18:14:16.407Z,147.00
2017-11-09T18:16:43.990Z,145.90
2017-11-09T18:19:11.603Z,124.07
2017-11-09T18:21:39.986Z,128.55
2017-11-09T18:24:08.359Z,136.85
2017-11-09T18:26:36.742Z,129.63
2017-11-09T18:29:05.115Z,135.45
2017-11-09T18:31:34.339Z,133.68
2017-11-09T18:34:01.927Z,135.50
2017-11-09T18:36:29.511Z,119.65
2017-11-09T18:38:57.146Z,128.52
2017-11-09T18:41:24.763Z,129.80
2017-11-09T18:43:52.420Z,128.48
2017-11-09T18:46:20.790Z,144.80
2017-11-09T18:48:49.144Z,121.55
2017-11-09T18:51:16.771Z,144.10
2017-11-09T18:53:44.391Z,142.18
2017-11-09T18:56:12.768Z,161.75
2017-11-09T18:58:42.923Z,139.95
2017-11-09T19:01:10.515Z,140.52
2017-11-09T19:03:39.739Z,144.40
2017-11-09T19:06:08.125Z,151.45
2017-11-09T19:08:35.719Z,135.80
2017-11-09T19:11:03.566Z,153.00
2017-11-09T19:13:32.128Z,159.75
2017-11-09T19:16:00.491Z,159.60
2017-11-09T19:18:28.863Z,174.50
2017-11-09T19:20:56.452Z,140.77
2017-11-09T19:23:24.094Z,153.65
2017-11-09T19:25:52.447Z,147.25
2017-11-09T19:28:20.813Z,133.60
2017-11-09T19:30:48.507Z,144.45
2017-11-09T19:33:16.859Z,136.80
2017-11-09T19:35:44.496Z,130.37
2017-11-09T19:38:12.133Z,146.15
2017-11-09T19:40:39.722Z,132.57
2017-11-09T19:43:07.328Z,144.98
2017-11-09T19:45:35.717Z,138.27
2017-11-09T19:48:03.363Z,148.30
2017-11-09T19:50:31.847Z,158.32
2017-11-09T19:53:00.198Z,149.73
2017-11-09T19:55:27.787Z,165.32
2017-11-09T19:57:56.255Z,162.32
2017-11-09T20:00:24.631Z,165.93
2017-11-09T20:02:52.983Z,150.93
2017-11-09T20:05:20.599Z,147.32
2017-11-09T20:07:48.268Z,186.73
2017-11-09T20:10:15.891Z,146.77
2017-11-09T20:12:44.372Z,137.40
2017-11-09T20:15:12.719Z,131.48
2017-11-09T20:17:40.303Z,127.43
2017-11-09T20:20:08.684Z,157.93
2017-11-09T20:22:37.067Z,130.77
2017-11-09T20:25:05.444Z,134.55
2017-11-09T20:27:33.795Z,154.40
2017-11-09T20:30:01.383Z,143.15
2017-11-09T20:32:28.998Z,144.85
2017-11-09T20:34:56.598Z,151.30
2017-11-09T20:37:24.224Z,146.05
2017-11-09T20:39:51.812Z,142.70
2017-11-09T20:42:19.416Z,143.60
2017-11-09T20:44:47.025Z,133.25
2017-11-09T20:47:15.383Z,133.23
2017-11-09T20:49:43.003Z,110.10
2017-11-09T20:52:13.188Z,106.43
2017-11-09T20:54:41.616Z,127.15
2017-11-09T20:57:09.270Z,117.60
2017-11-09T20:59:36.850Z,109.15
2017-11-09T21:02:04.490Z,116.78
2017-11-09T21:04:32.121Z,103.25
2017-11-09T21:06:59.711Z,105.63
2017-11-09T21:09:27.295Z,100.05
2017-11-09T21:11:54.903Z,103.65
2017-11-09T21:14:22.483Z,96.50
2017-11-09T21:16:50.092Z,96.00
2017-11-09T21:19:18.507Z,109.22
2017-11-09T21:21:46.091Z,98.62
2017-11-09T21:24:13.689Z,94.50
2017-11-09T21:26:42.120Z,96.00
2017-11-09T21:29:09.862Z,87.45
2017-11-09T21:31:37.449Z,96.68
2017-11-09T21:34:05.038Z,101.40
2017-11-09T21:36:32.667Z,93.18
2017-11-09T21:39:00.251Z,90.45
2017-11-09T21:41:27.831Z,95.75
2017-11-09T21:43:56.223Z,85.47
2017-11-09T21:46:23.803Z,89.72
2017-11-09T21:48:51.391Z,86.90
2017-11-09T21:51:18.990Z,88.07
2017-11-09T21:53:47.332Z,91.15
2017-11-09T21:56:14.959Z,83.20
2017-11-09T21:58:42.540Z,86.68
2017-11-09T22:01:10.123Z,87.00
2017-11-09T22:03:37.731Z,87.18
2017-11-09T22:06:05.316Z,90.30
2017-11-09T22:08:32.899Z,95.32
2017-11-09T22:11:00.512Z,84.30
2017-11-09T22:13:28.099Z,90.00
2017-11-09T22:15:55.751Z,79.62
2017-11-09T22:18:23.401Z,89.47
2017-11-09T22:20:51.746Z,87.03
2017-11-09T22:23:19.352Z,82.07
2017-11-09T22:25:46.935Z,80.15
2017-11-09T22:28:15.312Z,78.12
2017-11-09T22:30:43.666Z,92.35
2017-11-09T22:33:11.248Z,82.32
2017-11-09T22:35:39.623Z,86.37
2017-11-09T22:38:07.208Z,85.40
2017-11-09T22:40:34.792Z,95.82
2017-11-09T22:43:02.398Z,81.12
2017-11-09T22:45:30.750Z,80.10
2017-11-09T22:47:58.331Z,84.75
2017-11-09T22:50:26.709Z,86.95
2017-11-09T22:52:55.071Z,82.53
2017-11-09T22:55:22.655Z,90.18
2017-11-09T22:57:51.056Z,73.53
2017-11-09T23:00:18.647Z,81.87
2017-11-09T23:02:46.237Z,74.10
2017-11-09T23:05:13.908Z,72.78
2017-11-09T23:07:42.295Z,78.12
2017-11-09T23:10:10.681Z,73.43
2017-11-09T23:12:38.332Z,71.72
2017-11-09T23:15:06.748Z,77.50
2017-11-09T23:17:34.368Z,63.63
2017-11-09T23:20:02.824Z,68.25
2017-11-09T23:22:30.444Z,65.25
2017-11-09T23:24:58.065Z,69.90
2017-11-09T23:27:26.507Z,56.72
2017-11-09T23:29:54.132Z,54.50
